Terminal Aerodrome Forecast
Issued by NWS

Home | Current Version | Previous Version | Text Only | Print | Product List | Glossary On
Versions: 1 2 3 4 5 6 7 8 9 10 11 12 13 14 15 16 17 18 19 20 21 22 23 24 25 26 27 28 29
000
FTUS43 KGLD 220400 AAA
TAFMCK
TAF AMD
KMCK 220400Z 2204/2224 VRB05KT 5SM BR BKN100
     FM220600 26012G16KT P6SM VCSH BKN060
      TEMPO 2206/2210 5SM -SHRASN BR OVC030
     FM221000 30020G30KT P6SM SCT050 BKN100=

USA.gov is the U.S. government's official web portal to all federal, state and local government web resources and services.